KTVF/TVF METAR and TAF weather

Enter ICAO airport designator
Station Type Date Time Source
KTVF METAR 2022/01/27 21:56 UTC NOAA

KTVF 272156Z AUTO 30010KT 10SM CLR M17/M22 A3044 RMK AO2 SLP338 T11671222 FZRANO


Station Type Date Time Source
KTVF Decoded METAR 2022/01/27 21:56 UTC NOAA

Thief River Falls, Thief River Falls Regional Airport, MN, United States (KTVF) 48-04N 096-11W
Jan 27, 2022 - 04:56 PM EST / 2022.01.27 2156 UTC
Wind: from the WNW (300 degrees) at 12 MPH (10 KT):0
Visibility: 10 mile(s):0
Sky conditions: clear
Temperature: 1.9 F (-16.7 C)
Windchill: -14 F (-26 C):2
Dew Point: -8.0 F (-22.2 C)
Relative Humidity: 62%
Pressure (altimeter): 30.44 in. Hg (1030 hPa)
ob: KTVF 272156Z AUTO 30010KT 10SM CLR M17/M22 A3044 RMK AO2 SLP338 T11671222 FZRANO
cycle: 22

Station Type Date Time Source
KTVF TAF 2022/01/27 21:27 UTC NOAA

TAF
AMD KTVF 272124Z 2721/2818 31010KT P6SM SCT250
FM280100 28006KT P6SM SCT250
FM280300 24006KT P6SM FEW250
FM280600 21009KT P6SM SCT200
FM281600 24007KT P6SM BKN030

Example: see airport list